.
WxDataArchive / Data Records for 2010-01-01
2009-12-31 January 2010 2010-01-02

Data Records for Friday, 01 January 2010

Time	Temp	Chill	HIndex	Humid	Dewpt	 Wind 	HiWind	WindDir	Rain 	Barom 
-----	----	-----	------	-----	-----	------	------	-------	-----	----- 
00:00	23.6	23.6	23.6	83	19.2	1	3	315	0.00	30.117 
00:05	23.5	23.5	23.5	81	18.5	2	6	270	0.00	30.117 
00:10	23.3	23.3	23.3	81	18.3	2	5	270	0.00	30.117 
00:15	23.0	23.0	23.0	80	17.8	2	6	315	0.00	30.123 
00:20	23.0	23.0	23.0	79	17.5	2	5	270	0.00	30.123 
00:25	22.7	22.7	22.7	79	17.2	2	4	270	0.00	30.123 
00:30	22.5	22.5	22.5	79	17.0	2	5	248	0.00	30.125 
00:35	22.2	22.2	22.2	79	16.7	2	4	270	0.00	30.125 
00:40	22.1	22.1	22.1	80	16.9	2	4	315	0.00	30.125 
00:45	21.9	21.9	21.9	79	16.4	2	7	270	0.00	30.134 
00:50	21.6	21.6	21.6	79	16.1	2	9	248	0.00	30.134 
00:55	21.4	21.4	21.4	78	15.6	2	4	270	0.00	30.134 
01:00	21.3	21.3	21.3	77	15.2	3	4	270	0.00	30.138 
01:05	21.1	21.1	21.1	77	15.0	2	5	270	0.00	30.138 
01:10	21.1	21.1	21.1	76	14.7	2	4	315	0.00	30.138 
01:15	21.1	21.1	21.1	76	14.7	1	3	225	0.00	30.137 
01:20	21.0	21.0	21.0	76	14.6	1	3	315	0.00	30.137 
01:25	21.0	21.0	21.0	76	14.6	1	2	338	0.00	30.137 
01:30	21.0	21.0	21.0	75	14.3	1	5	338	0.00	30.137 
01:35	21.0	21.0	21.0	75	14.3	2	4	270	0.00	30.137 
01:40	20.8	20.8	20.8	75	14.1	2	6	270	0.00	30.137 
01:45	20.8	20.8	20.8	75	14.1	2	5	315	0.00	30.140 
01:50	20.8	20.8	20.8	75	14.1	2	4	248	0.00	30.140 
01:55	20.8	20.8	20.8	75	14.1	1	3	315	0.00	30.140 
02:00	20.8	20.8	20.8	74	13.8	2	5	315	0.00	30.143 
02:05	20.6	20.6	20.6	74	13.7	1	4	248	0.00	30.143 
02:10	20.6	20.6	20.6	74	13.7	1	4	315	0.00	30.143 
02:15	20.6	20.6	20.6	74	13.7	2	4	292	0.00	30.147 
02:20	20.6	20.6	20.6	75	14.0	1	4	315	0.00	30.147 
02:25	20.6	20.6	20.6	75	14.0	1	3	248	0.00	30.147 
02:30	20.5	20.5	20.5	75	13.9	2	4	270	0.00	30.157 
02:35	20.5	20.5	20.5	75	13.9	2	4	270	0.00	30.157 
02:40	20.3	20.3	20.3	74	13.4	2	4	270	0.00	30.157 
02:45	20.2	20.2	20.2	75	13.6	1	4	248	0.00	30.161 
02:50	20.2	20.2	20.2	75	13.6	1	3	270	0.00	30.161 
02:55	20.2	20.2	20.2	75	13.6	1	5	270	0.00	30.161 
03:00	19.9	19.9	19.9	75	13.3	2	5	248	0.00	30.166 
03:05	19.7	19.7	19.7	75	13.1	2	4	292	0.00	30.166 
03:10	19.7	19.7	19.7	75	13.1	2	3	292	0.00	30.166 
03:15	19.7	19.7	19.7	75	13.1	1	3	292	0.00	30.170 
03:20	19.5	19.5	19.5	76	13.2	2	4	292	0.00	30.170 
03:25	19.4	19.4	19.4	76	13.1	2	3	270	0.00	30.170 
03:30	19.4	19.4	19.4	76	13.1	2	5	248	0.00	30.175 
03:35	19.2	19.2	19.2	76	12.9	3	9	270	0.00	30.175 
03:40	19.1	19.1	19.1	76	12.8	2	6	248	0.00	30.175 
03:45	19.1	19.1	19.1	76	12.8	2	4	248	0.00	30.176 
03:50	19.1	19.1	19.1	76	12.8	2	4	248	0.00	30.176 
03:55	19.1	19.1	19.1	76	12.8	1	3	248	0.00	30.176 
04:00	18.9	18.9	18.9	76	12.6	2	6	270	0.00	30.177 
04:05	18.8	18.8	18.8	75	12.2	2	5	270	0.00	30.177 
04:10	18.8	18.8	18.8	75	12.2	2	4	270	0.00	30.177 
04:15	18.6	18.6	18.6	75	12.0	2	5	270	0.00	30.178 
04:20	18.6	18.6	18.6	75	12.0	2	5	248	0.00	30.178 
04:25	18.4	18.4	18.4	75	11.8	2	5	270	0.00	30.178 
04:30	18.3	18.3	18.3	75	11.7	2	5	270	0.00	30.184 
04:35	18.1	18.1	18.1	75	11.5	2	5	270	0.00	30.184 
04:40	18.1	18.1	18.1	76	11.8	2	5	270	0.00	30.184 
04:45	18.1	18.1	18.1	76	11.8	2	4	270	0.00	30.183 
04:50	18.1	18.1	18.1	76	11.8	1	5	248	0.00	30.183 
04:55	18.0	18.0	18.0	76	11.7	2	4	248	0.00	30.183 
05:00	17.8	17.8	17.8	77	11.8	2	4	292	0.00	30.191 
05:05	17.7	17.7	17.7	76	11.4	2	6	270	0.00	30.191 
05:10	17.5	17.5	17.5	76	11.3	2	6	270	0.00	30.191 
05:15	17.3	17.3	17.3	76	11.1	2	4	270	0.00	30.192 
05:20	17.3	17.3	17.3	77	11.3	2	4	248	0.00	30.192 
05:25	17.3	17.3	17.3	77	11.3	2	4	248	0.00	30.192 
05:30	17.2	17.2	17.2	77	11.3	3	6	248	0.00	30.194 
05:35	17.2	17.2	17.2	77	11.3	1	3	225	0.00	30.194 
05:40	17.2	17.2	17.2	77	11.3	3	6	270	0.00	30.194 
05:45	17.0	17.0	17.0	77	11.1	2	7	292	0.00	30.196 
05:50	17.0	17.0	17.0	77	11.1	2	5	270	0.00	30.196 
05:55	17.0	17.0	17.0	77	11.1	3	6	270	0.00	30.196 
06:00	17.0	17.0	17.0	77	11.1	2	6	270	0.00	30.195 
06:05	17.0	17.0	17.0	77	11.1	2	7	248	0.00	30.195 
06:10	17.0	17.0	17.0	78	11.3	1	4	270	0.00	30.195 
06:15	17.0	17.0	17.0	78	11.3	2	4	270	0.00	30.188 
06:20	17.0	17.0	17.0	78	11.3	2	5	270	0.00	30.188 
06:25	17.0	17.0	17.0	78	11.3	2	5	248	0.00	30.188 
06:30	17.0	17.0	17.0	78	11.3	2	6	248	0.00	30.192 
06:35	17.0	17.0	17.0	78	11.3	1	2	248	0.00	30.192 
06:40	17.0	17.0	17.0	78	11.3	2	4	248	0.00	30.192 
06:45	17.2	17.2	17.2	78	11.5	2	6	248	0.00	30.201 
06:50	17.2	17.2	17.2	78	11.5	2	4	270	0.00	30.201 
06:55	17.2	17.2	17.2	78	11.5	2	4	248	0.00	30.201 
07:00	17.2	17.2	17.2	78	11.5	2	6	248	0.00	30.199 
07:05	17.0	17.0	17.0	78	11.3	2	7	248	0.00	30.199 
07:10	17.0	17.0	17.0	78	11.3	2	3	248	0.00	30.199 
07:15	17.0	17.0	17.0	78	11.3	2	4	270	0.00	30.212 
07:20	17.0	17.0	17.0	75	10.5	1	3	270	0.00	30.212 
07:25	17.0	17.0	17.0	77	11.1	3	5	270	0.00	30.212 
07:30	17.0	17.0	17.0	77	11.1	2	5	248	0.00	30.214 
07:35	17.0	17.0	17.0	77	11.1	3	9	248	0.00	30.214 
07:40	16.9	16.9	16.9	77	11.0	3	8	248	0.00	30.214 
07:45	16.9	16.9	16.9	77	11.0	2	5	270	0.00	30.213 
07:50	16.9	16.9	16.9	78	11.3	2	4	248	0.00	30.213 
07:55	16.7	16.7	16.7	77	10.8	3	6	270	0.00	30.213 
08:00	16.5	16.5	16.5	77	10.6	1	3	270	0.00	30.216 
08:05	16.5	16.5	16.5	77	10.6	1	3	270	0.00	30.216 
08:10	16.4	16.4	16.4	77	10.5	2	5	270	0.00	30.216 
08:15	16.2	16.2	16.2	77	10.3	2	4	270	0.00	30.219 
08:20	16.1	16.1	16.1	78	10.5	2	6	270	0.00	30.219 
08:25	15.9	15.9	15.9	78	10.3	2	6	248	0.00	30.219 
08:30	15.9	15.9	15.9	78	10.3	2	9	248	0.00	30.225 
08:35	15.9	15.9	15.9	78	10.3	2	5	270	0.00	30.225 
08:40	15.9	15.9	15.9	78	10.3	3	7	248	0.00	30.225 
08:45	15.9	15.9	15.9	78	10.3	2	5	248	0.00	30.224 
08:50	16.1	16.1	16.1	78	10.5	2	5	292	0.00	30.224 
08:55	16.1	16.1	16.1	78	10.5	2	5	270	0.00	30.224 
09:00	15.9	15.9	15.9	78	10.3	2	6	248	0.00	30.232 
09:05	15.9	15.9	15.9	78	10.3	2	4	270	0.00	30.232 
09:10	15.9	15.9	15.9	78	10.3	2	4	248	0.00	30.232 
09:15	15.9	15.9	15.9	78	10.3	2	5	248	0.00	30.235 
09:20	15.9	15.9	15.9	78	10.3	2	5	248	0.00	30.235 
09:25	16.1	16.1	16.1	78	10.5	1	4	248	0.00	30.235 
09:30	15.9	15.9	15.9	78	10.3	3	6	270	0.00	30.238 
09:35	15.9	15.9	15.9	78	10.3	3	9	248	0.00	30.238 
09:40	16.1	16.1	16.1	79	10.8	2	5	270	0.00	30.238 
09:45	16.1	16.1	16.1	79	10.8	2	5	248	0.00	30.246 
09:50	16.1	16.1	16.1	79	10.8	2	4	248	0.00	30.246 
09:55	15.9	15.9	15.9	80	10.8	2	5	248	0.00	30.246 
10:00	16.1	16.1	16.1	80	11.0	2	4	248	0.00	30.249 
10:05	16.1	16.1	16.1	80	11.0	2	6	248	0.00	30.249 
10:10	16.1	16.1	16.1	80	11.0	2	5	248	0.00	30.249 
10:15	16.1	16.1	16.1	80	11.0	2	4	248	0.00	30.254 
10:20	16.1	16.1	16.1	80	11.0	2	5	248	0.00	30.254 
10:25	16.1	16.1	16.1	80	11.0	2	5	248	0.00	30.254 
10:30	16.2	16.2	16.2	80	11.1	2	5	248	0.00	30.256 
10:35	16.4	16.4	16.4	80	11.3	2	4	292	0.00	30.256 
10:40	16.4	16.4	16.4	80	11.3	2	9	248	0.00	30.256 
10:45	16.5	16.5	16.5	80	11.4	2	9	270	0.00	30.263 
10:50	16.5	16.5	16.5	80	11.4	2	3	248	0.00	30.263 
10:55	16.7	16.7	16.7	79	11.3	2	5	270	0.00	30.263 
11:00	16.7	16.7	16.7	79	11.3	2	5	248	0.00	30.262 
11:05	16.9	16.9	16.9	79	11.5	2	4	270	0.00	30.262 
11:10	16.9	16.9	16.9	79	11.5	2	6	248	0.00	30.262 
11:15	17.0	17.0	17.0	79	11.6	2	4	270	0.00	30.265 
11:20	17.0	17.0	17.0	78	11.3	2	5	270	0.00	30.265 
11:25	16.9	16.9	16.9	78	11.3	2	5	270	0.00	30.265 
11:30	17.0	17.0	17.0	78	11.3	2	6	270	0.00	30.263 
11:35	17.2	17.2	17.2	78	11.5	3	7	248	0.00	30.263 
11:40	17.3	17.3	17.3	78	11.6	2	6	270	0.00	30.263 
11:45	17.5	17.5	17.5	78	11.8	1	4	248	0.00	30.259 
11:50	17.7	17.7	17.7	77	11.7	2	5	248	0.00	30.259 
11:55	17.8	17.8	17.8	77	11.8	2	5	270	0.00	30.259 
12:00	18.0	18.0	18.0	77	12.0	2	4	270	0.00	30.250 
12:05	18.1	18.1	18.1	77	12.1	2	4	270	0.00	30.250 
12:10	18.3	18.3	18.3	76	12.0	1	3	270	0.00	30.250 
12:15	18.4	18.4	18.4	76	12.1	2	4	248	0.00	30.252 
12:20	18.3	18.3	18.3	75	11.7	2	6	292	0.00	30.252 
12:25	18.4	18.4	18.4	75	11.8	2	5	248	0.00	30.252 
12:30	18.4	18.4	18.4	75	11.8	2	5	270	0.00	30.252 
12:35	18.4	18.4	18.4	75	11.8	3	6	248	0.00	30.252 
12:40	18.3	18.3	18.3	74	11.4	2	9	248	0.00	30.252 
12:45	18.3	18.3	18.3	74	11.4	3	9	270	0.00	30.250 
12:50	18.4	18.4	18.4	74	11.5	2	5	270	0.00	30.250 
12:55	18.4	18.4	18.4	74	11.5	2	6	248	0.00	30.250 
13:00	18.3	18.3	18.3	74	11.4	2	5	270	0.00	30.242 
13:05	18.4	18.4	18.4	74	11.5	2	5	270	0.00	30.242 
13:10	18.3	18.3	18.3	73	11.1	3	7	270	0.00	30.242 
13:15	18.3	18.3	18.3	74	11.4	3	7	270	0.00	30.238 
13:20	18.3	18.3	18.3	74	11.4	2	5	248	0.00	30.238 
13:25	18.4	18.4	18.4	74	11.5	2	5	248	0.00	30.238 
13:30	18.6	18.6	18.6	73	11.4	2	5	248	0.00	30.235 
13:35	18.8	18.8	18.8	74	11.9	2	4	270	0.00	30.235 
13:40	18.9	18.9	18.9	73	11.7	2	6	248	0.00	30.235 
13:45	18.9	18.9	18.9	73	11.7	2	4	270	0.00	30.236 
13:50	18.9	18.9	18.9	73	11.7	2	4	270	0.00	30.236 
13:55	18.9	18.9	18.9	73	11.7	2	5	270	0.00	30.236 
14:00	19.1	19.1	19.1	73	11.9	2	4	248	0.00	30.237 
14:05	19.1	19.1	19.1	73	11.9	3	9	270	0.00	30.237 
14:10	19.1	19.1	19.1	73	11.9	3	9	225	0.00	30.237 
14:15	18.9	12.9	18.9	72	11.4	4	10	270	0.00	30.240 
14:20	18.9	18.9	18.9	73	11.7	2	5	270	0.00	30.240 
14:25	18.9	18.9	18.9	73	11.7	3	6	270	0.00	30.240 
14:30	18.8	18.8	18.8	72	11.3	3	6	270	0.00	30.241 
14:35	18.8	18.8	18.8	73	11.6	2	6	248	0.00	30.241 
14:40	18.9	18.9	18.9	73	11.7	2	5	270	0.00	30.241 
14:45	18.9	18.9	18.9	73	11.7	3	6	248	0.00	30.245 
14:50	18.6	12.6	18.6	72	11.1	4	9	248	0.00	30.245 
14:55	18.6	18.6	18.6	73	11.4	2	6	248	0.00	30.245 
15:00	18.6	18.6	18.6	72	11.1	3	7	270	0.00	30.246 
15:05	18.8	18.8	18.8	72	11.3	2	5	248	0.00	30.246 
15:10	18.9	18.9	18.9	72	11.4	3	9	248	0.00	30.246 
15:15	18.9	18.9	18.9	71	11.1	3	11	270	0.00	30.246 
15:20	18.9	18.9	18.9	72	11.4	2	7	248	0.00	30.246 
15:25	18.8	18.8	18.8	72	11.3	2	5	248	0.00	30.246 
15:30	18.6	18.6	18.6	71	10.8	3	13	270	0.00	30.246 
15:35	18.6	18.6	18.6	72	11.1	2	4	270	0.00	30.246 
15:40	18.4	18.4	18.4	72	10.9	3	7	248	0.00	30.246 
15:45	18.1	18.1	18.1	72	10.6	3	9	248	0.00	30.251 
15:50	18.1	18.1	18.1	73	10.9	3	7	248	0.00	30.251 
15:55	18.1	18.1	18.1	73	10.9	2	5	270	0.00	30.251 
16:00	18.0	18.0	18.0	72	10.5	3	11	248	0.00	30.250 
16:05	17.8	17.8	17.8	72	10.3	2	5	270	0.00	30.250 
16:10	17.7	17.7	17.7	72	10.2	3	11	270	0.00	30.250 
16:15	17.5	17.5	17.5	72	10.0	2	7	248	0.00	30.252 
16:20	17.3	17.3	17.3	73	10.2	2	9	248	0.00	30.252 
16:25	17.3	17.3	17.3	73	10.2	3	7	270	0.00	30.252 
16:30	17.2	17.2	17.2	73	10.1	3	7	270	0.00	30.254 
16:35	17.0	17.0	17.0	73	9.9	3	6	270	0.00	30.254 
16:40	16.9	16.9	16.9	73	9.8	3	5	270	0.00	30.254 
16:45	16.7	16.7	16.7	73	9.6	3	6	270	0.00	30.246 
16:50	16.7	16.7	16.7	74	9.9	3	9	248	0.00	30.246 
16:55	16.5	16.5	16.5	74	9.7	3	6	270	0.00	30.246 
17:00	16.5	16.5	16.5	74	9.7	2	6	248	0.00	30.249 
17:05	16.4	16.4	16.4	75	9.9	3	4	270	0.00	30.249 
17:10	16.4	16.4	16.4	75	9.9	2	6	270	0.00	30.249 
17:15	16.2	16.2	16.2	75	9.7	2	5	270	0.00	30.246 
17:20	16.2	16.2	16.2	75	9.7	2	4	270	0.00	30.246 
17:25	16.2	16.2	16.2	75	9.7	2	7	270	0.00	30.246 
17:30	16.2	16.2	16.2	75	9.7	2	4	270	0.00	30.249 
17:35	16.2	16.2	16.2	74	9.4	2	7	270	0.00	30.249 
17:40	16.2	16.2	16.2	74	9.4	2	5	248	0.00	30.249 
17:45	16.2	16.2	16.2	74	9.4	2	6	225	0.00	30.252 
17:50	16.2	16.2	16.2	74	9.4	2	4	248	0.00	30.252 
17:55	16.1	16.1	16.1	74	9.3	2	4	225	0.00	30.252 
18:00	16.2	16.2	16.2	74	9.4	1	4	248	0.00	30.259 
18:05	16.2	16.2	16.2	74	9.4	2	5	248	0.00	30.259 
18:10	16.2	16.2	16.2	75	9.7	3	6	248	0.00	30.259 
18:15	16.1	16.1	16.1	75	9.6	2	5	248	0.00	30.260 
18:20	16.1	16.1	16.1	76	9.9	2	4	248	0.00	30.260 
18:25	15.9	15.9	15.9	77	10.0	2	5	248	0.00	30.260 
18:30	15.9	15.9	15.9	78	10.3	1	4	248	0.00	30.260 
18:35	15.7	15.7	15.7	78	10.1	2	9	248	0.00	30.260 
18:40	15.7	15.7	15.7	78	10.1	2	7	225	0.00	30.260 
18:45	15.6	15.6	15.6	79	10.3	2	9	248	0.00	30.259 
18:50	15.6	15.6	15.6	79	10.3	2	6	248	0.00	30.259 
18:55	15.6	15.6	15.6	80	10.6	2	4	248	0.00	30.259 
19:00	15.4	15.4	15.4	80	10.4	2	6	248	0.00	30.260 
19:05	15.4	15.4	15.4	81	10.6	2	5	248	0.00	30.260 
19:10	15.4	15.4	15.4	81	10.6	1	3	248	0.00	30.260 
19:15	15.4	15.4	15.4	81	10.6	2	4	270	0.00	30.261 
19:20	15.2	15.2	15.2	82	10.7	2	4	248	0.00	30.261 
19:25	15.2	15.2	15.2	82	10.7	2	6	248	0.00	30.261 
19:30	15.1	15.1	15.1	83	10.9	2	6	270	0.00	30.261 
19:35	14.9	14.9	14.9	83	10.7	1	3	248	0.00	30.261 
19:40	14.9	14.9	14.9	83	10.7	1	4	248	0.00	30.261 
19:45	14.9	14.9	14.9	84	11.0	1	5	248	0.00	30.269 
19:50	14.8	14.8	14.8	84	10.9	2	4	248	0.00	30.269 
19:55	14.8	14.8	14.8	84	10.9	1	3	248	0.00	30.269 
20:00	14.8	14.8	14.8	84	10.9	1	3	248	0.00	30.271 
20:05	14.8	14.8	14.8	85	11.1	1	3	248	0.00	30.271 
20:10	14.8	14.8	14.8	85	11.1	2	4	248	0.00	30.271 
20:15	14.8	14.8	14.8	85	11.1	1	5	248	0.00	30.271 
20:20	14.6	14.6	14.6	85	10.9	2	4	270	0.00	30.271 
20:25	14.4	14.4	14.4	85	10.7	2	7	270	0.00	30.271 
20:30	14.4	14.4	14.4	85	10.7	1	3	248	0.00	30.266 
20:35	14.3	14.3	14.3	85	10.6	0	2	248	0.00	30.266 
20:40	14.1	14.1	14.1	85	10.4	1	4	248	0.00	30.266 
20:45	14.0	14.0	14.0	85	10.3	1	3	270	0.00	30.264 
20:50	13.8	13.8	13.8	85	10.1	1	3	270	0.00	30.264 
20:55	13.6	13.6	13.6	85	9.9	1	2	248	0.00	30.264 
21:00	13.5	13.5	13.5	85	9.8	1	2	248	0.00	30.264 
21:05	13.3	13.3	13.3	84	9.4	1	3	248	0.00	30.264 
21:10	13.1	13.1	13.1	84	9.2	1	2	248	0.00	30.264 
21:15	12.9	12.9	12.9	84	9.0	1	2	248	0.00	30.270 
21:20	12.8	12.8	12.8	84	8.9	1	3	248	0.00	30.270 
21:25	12.8	12.8	12.8	84	8.9	0	2	248	0.00	30.270 
21:30	12.6	12.6	12.6	84	8.7	0	2	248	0.00	30.268 
21:35	12.4	12.4	12.4	84	8.5	1	3	248	0.00	30.268 
21:40	12.4	12.4	12.4	84	8.5	0	2	248	0.00	30.268 
21:45	12.3	12.3	12.3	84	8.4	0	2	248	0.00	30.274 
21:50	12.3	12.3	12.3	84	8.4	1	3	248	0.00	30.274 
21:55	12.1	12.1	12.1	84	8.2	1	3	248	0.00	30.274 
22:00	12.1	12.1	12.1	84	8.2	1	2	248	0.00	30.279 
22:05	12.1	12.1	12.1	84	8.2	1	2	248	0.00	30.279 
22:10	11.9	11.9	11.9	84	8.0	0	2	248	0.00	30.279 
22:15	11.7	11.7	11.7	84	7.8	1	2	248	0.00	30.278 
22:20	11.7	11.7	11.7	84	7.8	1	2	248	0.00	30.278 
22:25	11.6	11.6	11.6	84	7.7	1	2	248	0.00	30.278 
22:30	11.4	11.4	11.4	84	7.5	0	2	248	0.00	30.280 
22:35	11.4	11.4	11.4	84	7.5	1	2	248	0.00	30.280 
22:40	11.4	11.4	11.4	84	7.5	1	2	248	0.00	30.280 
22:45	11.2	11.2	11.2	84	7.3	0	2	248	0.00	30.280 
22:50	11.2	11.2	11.2	84	7.3	0	2	248	0.00	30.280 
22:55	11.2	11.2	11.2	84	7.3	1	2	248	0.00	30.280 
23:00	11.1	11.1	11.1	84	7.2	0	2	248	0.00	30.282 
23:05	11.1	11.1	11.1	84	7.2	0	2	248	0.00	30.282 
23:10	11.1	11.1	11.1	84	7.2	0	3	248	0.00	30.282 
23:15	11.1	11.1	11.1	84	7.2	0	2	248	0.00	30.289 
23:20	10.9	10.9	10.9	84	7.0	0	2	248	0.00	30.289 
23:25	10.9	10.9	10.9	84	7.0	1	2	248	0.00	30.289 
23:30	10.9	10.9	10.9	84	7.0	1	3	248	0.00	30.291 
23:35	10.7	10.7	10.7	84	6.8	1	2	248	0.00	30.291 
23:40	10.7	10.7	10.7	84	6.8	0	2	248	0.00	30.291 
23:45	10.7	10.7	10.7	84	6.8	0	2	248	0.00	30.290 
23:50	10.7	10.7	10.7	84	6.8	1	2	248	0.00	30.290 
23:55	10.7	10.7	10.7	84	6.8	1	3	225	0.00	30.290 

CoCoRaHS
IN-AL-39
A2 Web Hosting
Creative Commons License
GoDaddy
search engine by freefind advanced

loaded 2018-11-19 10:56:17 • last modified 2010-11-18 10:43:29
Privacy PolicyDisclaimer
• wx.awcolley.com is powered by PmWiki v.2002016 •
• all content (unless otherwise noted) © 2018 A W Colley